To NAV CANADA Home Page Login to a new session Search on AWWS site Feedback and Comments Disclaimer Vers la page française équivalente Tips FAQ What's new on the site To the Forecasts and Observations / NOTAM section To "File a Flight Plan" website Publications and other links Update of the User's profile FIC Telephone Numbers My Weather Data Folder Route Weather Data Regional Weather Data Local Weather Data To the Forecasts and Observations / NOTAM section
Request Generated 09/25/2016 at 19:03:09 UTC . Weather information available at that time is displayed.

METAR/TAF

GREENWOOD/NS    

METAR CYZX 251900Z 31014G19KT 15SM FEW030 BKN036 12/06 A2989 RMK CU2SC3 WNDY HILL 32017G24KT SLP124=
METAR CYZX 251800Z 30014KT 15SM SCT030 BKN048 13/04 A2989 RMK CU4SC2 WNDY HILL 31012G18KT SLP124=
METAR CYZX 251700Z 31012G19KT 15SM BKN030 BKN047 12/05 A2990 RMK SC6SC2 WNDY HILL 33008G16KT SLP126=

TAF CYZX 251730Z 2518/2618 32010G20KT P6SM BKN030 TEMPO 2518/2522
P6SM -SHRA
FM260300 32008KT P6SM SCT030 TEMPO 2603/2610 BKN030
RMK NXT FCST BY 260000Z=
Your time UTC time
Weather data provided by Environment Canada and NAV CANADA